Time;durP1;ratioP1;P1;durP2;ratioP2;P2;SDS_P1;SDS_P2;PMS_P1;PMS_P2;Temp;Humidity;BMP_temperature;BMP_pressure;BME280_temperature;BME280_humidity;BME280_pressure;Samples;Min_cycle;Max_cycle;Signal;HPM_P1;HPM_P2
2023/02/15 00:00:01;;;;;;;14.63;11.80;;;15.50;69.60;;;;;;4224716;27;19992;-67
2023/02/15 00:02:45;;;;;;;17.27;13.40;;;15.60;69.60;;;;;;4226325;27;20062;-66
2023/02/15 00:05:26;;;;;;;15.02;11.60;;;15.60;69.30;;;;;;4227572;27;20043;-66
2023/02/15 00:08:07;;;;;;;11.88;10.60;;;15.60;69.10;;;;;;4226297;28;20112;-67
2023/02/15 00:10:48;;;;;;;11.98;10.73;;;15.60;69.00;;;;;;4210801;28;20117;-66
2023/02/15 00:13:29;;;;;;;10.55;9.43;;;15.60;68.90;;;;;;4225084;27;20053;-67
2023/02/15 00:16:13;;;;;;;13.70;10.83;;;15.60;68.70;;;;;;4210524;28;20122;-68
2023/02/15 00:18:54;;;;;;;19.42;10.63;;;15.50;68.60;;;;;;4210196;28;20305;-67
2023/02/15 00:21:36;;;;;;;20.70;11.75;;;15.50;68.80;;;;;;4227475;27;20043;-68
2023/02/15 00:24:19;;;;;;;12.10;10.73;;;15.60;68.90;;;;;;4227038;28;20100;-68
2023/02/15 00:27:00;;;;;;;17.48;11.73;;;15.60;68.40;;;;;;4225351;27;20058;-68
2023/02/15 00:29:41;;;;;;;62.97;12.02;;;15.70;68.10;;;;;;4226656;27;20106;-67
2023/02/15 00:32:23;;;;;;;16.45;9.80;;;15.80;68.00;;;;;;4225187;28;20185;-68
2023/02/15 00:35:06;;;;;;;11.20;10.20;;;15.80;67.50;;;;;;4224657;28;20177;-67
2023/02/15 00:37:47;;;;;;;12.13;10.50;;;15.80;67.10;;;;;;4225366;27;20099;-68
2023/02/15 00:40:28;;;;;;;15.70;9.65;;;15.90;67.00;;;;;;4225214;27;20809;-68
2023/02/15 00:43:10;;;;;;;;;;;15.90;67.00;;;;;;4208132;28;20836;-67
2023/02/15 00:45:50;;;;;;;20.40;8.40;;;15.90;67.10;;;;;;4209084;28;20016;-67
2023/02/15 00:48:33;;;;;;;8.65;7.82;;;15.80;67.00;;;;;;4222668;27;20059;-67
2023/02/15 00:51:14;;;;;;;11.55;8.73;;;15.80;66.70;;;;;;4210536;28;20059;-67
2023/02/15 00:53:55;;;;;;;31.75;8.75;;;15.80;66.60;;;;;;4194539;28;20047;-67
2023/02/15 00:56:36;;;;;;;25.92;7.68;;;15.80;66.70;;;;;;4208732;28;20050;-61
2023/02/15 00:59:17;;;;;;;24.77;8.40;;;15.80;66.70;;;;;;4207990;28;20051;-62
2023/02/15 01:01:58;;;;;;;32.00;9.07;;;15.80;67.50;;;;;;4216238;27;20057;-62
2023/02/15 01:04:41;;;;;;;31.20;9.20;;;15.80;66.50;;;;;;4226765;27;20131;-61
2023/02/15 01:07:22;;;;;;;48.65;9.80;;;15.80;66.20;;;;;;4211882;28;20058;-62
2023/02/15 01:10:03;;;;;;;40.33;9.60;;;15.80;66.20;;;;;;4225139;28;20055;-61
2023/02/15 01:12:46;;;;;;;46.00;9.93;;;15.70;66.40;;;;;;4226369;27;20047;-61
2023/02/15 01:15:27;;;;;;;25.23;9.95;;;15.70;66.50;;;;;;4226313;27;20054;-62
2023/02/15 01:18:08;;;;;;;12.88;9.23;;;15.70;66.80;;;;;;4225705;28;20054;-62
2023/02/15 01:20:50;;;;;;;28.00;9.27;;;15.70;66.90;;;;;;4225120;28;20054;-61
2023/02/15 01:23:33;;;;;;;51.55;11.88;;;15.70;66.70;;;;;;4225318;28;20390;-62
2023/02/15 01:26:15;;;;;;;13.52;10.65;;;15.60;66.50;;;;;;4224965;27;20051;-62
2023/02/15 01:28:57;;;;;;;24.98;11.35;;;15.60;66.60;;;;;;4223366;27;20047;-62
2023/02/15 01:31:39;;;;;;;12.20;10.10;;;15.70;66.80;;;;;;4214311;28;20082;-61
2023/02/15 01:34:20;;;;;;;18.15;12.13;;;15.70;66.90;;;;;;4206779;28;20160;-61
2023/02/15 01:37:02;;;;;;;17.30;11.27;;;15.80;66.70;;;;;;4209197;28;20055;-60
2023/02/15 01:39:43;;;;;;;14.02;10.95;;;15.80;66.20;;;;;;4223674;28;20284;-60
2023/02/15 01:42:25;;;;;;;19.38;10.35;;;15.90;66.00;;;;;;4222060;27;20054;-61
2023/02/15 01:45:20;;;;;;;32.45;12.13;;;15.90;65.90;;;;;;4224913;28;20058;-61
2023/02/15 01:48:06;;;;;;;27.08;12.02;;;15.90;65.50;;;;;;4225705;28;20062;-62
2023/02/15 01:50:50;;;;;;;29.63;12.48;;;15.90;65.60;;;;;;4214342;28;20058;-61
2023/02/15 01:53:39;;;;;;;26.55;12.10;;;16.00;65.50;;;;;;4224851;28;20043;-61
2023/02/15 01:56:22;;;;;;;15.07;11.60;;;16.00;66.10;;;;;;4208047;28;20402;-61
2023/02/15 01:59:08;;;;;;;12.45;11.15;;;15.90;65.30;;;;;;4206777;28;20055;-62
2023/02/15 02:01:50;;;;;;;25.30;10.90;;;15.90;65.30;;;;;;4209256;28;20537;-61
2023/02/15 02:04:37;;;;;;;23.38;11.32;;;15.80;65.60;;;;;;4210739;28;20112;-60
2023/02/15 02:07:21;;;;;;;35.70;10.88;;;15.90;65.40;;;;;;4222227;28;20050;-62
2023/02/15 02:10:07;;;;;;;22.05;10.82;;;15.90;65.10;;;;;;4225690;28;20391;-61
2023/02/15 02:12:51;;;;;;;16.02;10.55;;;15.90;64.80;;;;;;4209249;28;20051;-61
2023/02/15 02:15:40;;;;;;;17.88;11.27;;;16.00;64.80;;;;;;4226324;28;20042;-61
2023/02/15 02:18:36;;;;;;;18.80;11.48;;;15.90;64.60;;;;;;4222227;28;20059;-61
2023/02/15 02:21:47;;;;;;;27.92;11.32;;;16.00;64.70;;;;;;4213042;28;20058;-61
2023/02/15 02:24:55;;;;;;;21.48;11.23;;;16.00;64.30;;;;;;4209213;28;20059;-61
2023/02/15 02:27:40;;;;;;;18.40;11.63;;;15.90;64.40;;;;;;4224053;28;20049;-61
2023/02/15 02:30:49;;;;;;;20.77;12.50;;;15.90;64.80;;;;;;4225874;28;20058;-61
2023/02/15 02:33:47;;;;;;;21.50;11.45;;;15.80;64.50;;;;;;4222032;28;20096;-60
2023/02/15 02:36:38;;;;;;;17.55;11.27;;;15.80;64.60;;;;;;4225077;28;20051;-61
2023/02/15 02:39:28;;;;;;;13.13;11.07;;;15.80;64.90;;;;;;4209976;28;20399;-60
2023/02/15 02:42:18;;;;;;;24.10;11.50;;;15.80;64.80;;;;;;4224476;28;20177;-61
2023/02/15 02:45:04;;;;;;;20.25;11.02;;;15.80;64.90;;;;;;4225415;28;20310;-61
2023/02/15 02:47:49;;;;;;;18.70;11.40;;;15.80;64.70;;;;;;4225644;28;20050;-62
2023/02/15 02:50:32;;;;;;;13.50;11.05;;;15.80;64.60;;;;;;4208774;28;20051;-61
2023/02/15 02:53:13;;;;;;;25.77;11.82;;;15.80;64.80;;;;;;4207465;28;20501;-61
2023/02/15 02:55:57;;;;;;;18.57;12.43;;;15.70;65.00;;;;;;4218116;28;20124;-61
2023/02/15 02:58:43;;;;;;;19.98;13.60;;;15.70;65.20;;;;;;4224586;28;20136;-60
2023/02/15 03:01:29;;;;;;;29.08;14.30;;;15.70;65.20;;;;;;4224957;28;20402;-60
2023/02/15 03:04:14;;;;;;;31.63;14.63;;;15.80;65.10;;;;;;4208575;28;20186;-61
2023/02/15 03:07:01;;;;;;;49.35;13.52;;;15.90;65.00;;;;;;4215089;28;20050;-60
2023/02/15 03:09:46;;;;;;;54.67;15.10;;;15.90;64.60;;;;;;4224312;28;20090;-61
2023/02/15 03:12:31;;;;;;;28.73;14.45;;;16.00;64.40;;;;;;4208708;28;20519;-61
2023/02/15 03:15:16;;;;;;;52.95;15.20;;;16.00;64.30;;;;;;4225098;28;20063;-61
2023/02/15 03:18:02;;;;;;;64.40;15.00;;;16.00;64.30;;;;;;4227153;28;20051;-61
2023/02/15 03:20:44;;;;;;;38.90;14.38;;;16.00;64.20;;;;;;4227461;28;20406;-61
2023/02/15 03:23:29;;;;;;;41.75;15.32;;;16.10;63.90;;;;;;4227063;27;20062;-60
2023/02/15 03:26:13;;;;;;;26.88;15.40;;;16.10;63.80;;;;;;4212647;28;20091;-60
2023/02/15 03:28:57;;;;;;;46.22;15.23;;;16.00;63.90;;;;;;4211811;28;20052;-60
2023/02/15 03:31:41;;;;;;;41.67;13.60;;;16.00;64.00;;;;;;4210506;28;20054;-60
2023/02/15 03:34:22;;;;;;;58.28;14.07;;;16.00;63.80;;;;;;4222570;27;20073;-61
2023/02/15 03:37:11;;;;;;;63.70;14.35;;;16.00;63.60;;;;;;4228398;27;20144;-60
2023/02/15 03:41:08;;;;;;;47.92;14.68;;;16.00;63.50;;;;;;4228043;27;20069;-61
2023/02/15 03:43:02;;;;;;;63.03;15.13;;;16.00;63.70;;;;;;4227897;27;20065;-61
2023/02/15 03:45:54;;;;;;;46.65;14.63;;;16.00;63.80;;;;;;4227704;27;20051;-61
2023/02/15 03:48:40;;;;;;;53.90;15.02;;;16.10;63.60;;;;;;4227949;27;20054;-62
2023/02/15 03:51:36;;;;;;;41.50;15.00;;;16.10;63.20;;;;;;4225837;27;20050;-60
2023/02/15 04:03:28;;;;;;;46.60;15.98;;;16.10;63.30;;;;;;4210647;28;20509;-60
2023/02/15 04:06:08;;;;;;;45.70;15.27;;;16.10;63.00;;;;;;4227529;27;20070;-62
2023/02/15 04:11:47;;;;;;;24.08;15.48;;;16.10;62.70;;;;;;4226692;27;20046;-60
2023/02/15 04:17:28;;;;;;;18.50;15.45;;;16.10;62.90;;;;;;4210258;28;20083;-60
2023/02/15 04:26:07;;;;;;;15.60;13.55;;;16.10;62.70;;;;;;4224675;28;20055;-61
2023/02/15 04:28:47;;;;;;;14.35;12.85;;;16.10;62.80;;;;;;4227543;27;20058;-61
2023/02/15 04:31:30;;;;;;;19.17;13.50;;;16.00;63.00;;;;;;4211995;28;20071;-61
2023/02/15 04:34:11;;;;;;;14.65;13.07;;;16.00;63.10;;;;;;4226730;27;20054;-60
2023/02/15 04:36:52;;;;;;;15.60;12.80;;;16.00;62.90;;;;;;4227235;27;20058;-66
2023/02/15 04:39:33;;;;;;;15.02;13.43;;;16.00;62.80;;;;;;4227344;27;20050;-66
2023/02/15 04:42:14;;;;;;;13.48;12.07;;;16.00;62.80;;;;;;4226352;28;20371;-64
2023/02/15 04:44:55;;;;;;;14.43;12.93;;;16.00;62.90;;;;;;4210182;28;20051;-65
2023/02/15 04:47:37;;;;;;;16.42;14.05;;;15.90;62.80;;;;;;4210435;28;20490;-66
2023/02/15 04:50:18;;;;;;;15.40;13.80;;;15.90;63.00;;;;;;4210039;28;20067;-66
2023/02/15 04:52:59;;;;;;;14.95;13.05;;;16.00;63.00;;;;;;4226371;27;20059;-65
2023/02/15 04:55:40;;;;;;;15.52;14.02;;;16.00;62.90;;;;;;4211384;28;20104;-65
2023/02/15 04:58:21;;;;;;;15.18;13.63;;;16.00;62.90;;;;;;4223728;27;20082;-64
2023/02/15 05:01:02;;;;;;;15.30;13.67;;;15.90;62.90;;;;;;4226922;27;20062;-66
2023/02/15 05:03:44;;;;;;;14.48;13.10;;;15.90;63.30;;;;;;4209955;28;20277;-66
2023/02/15 05:06:25;;;;;;;13.55;12.05;;;15.90;63.30;;;;;;4194945;28;20051;-67
2023/02/15 05:09:06;;;;;;;14.82;13.30;;;15.90;62.80;;;;;;4208637;28;20051;-67
2023/02/15 05:11:47;;;;;;;15.67;14.07;;;16.00;62.90;;;;;;4208734;28;20043;-65
2023/02/15 05:14:28;;;;;;;14.00;12.60;;;15.90;62.70;;;;;;4221284;27;20293;-65
2023/02/15 05:17:09;;;;;;;16.05;13.65;;;15.90;62.80;;;;;;4209849;28;20406;-66
2023/02/15 05:19:51;;;;;;;15.90;14.20;;;15.90;63.00;;;;;;4210013;28;20047;-65
2023/02/15 05:22:32;;;;;;;16.90;15.07;;;15.90;63.00;;;;;;4220196;28;20043;-67
2023/02/15 05:28:20;;;;;;;20.80;16.67;;;15.90;62.80;;;;;;4225801;27;20046;-66
2023/02/15 05:31:05;;;;;;;22.02;16.10;;;15.90;62.80;;;;;;4212983;28;20051;-65
2023/02/15 05:33:47;;;;;;;41.70;18.50;;;15.90;62.90;;;;;;4225038;28;20038;-65
2023/02/15 05:36:29;;;;;;;43.80;16.60;;;15.90;63.30;;;;;;4226485;28;20509;-61
2023/02/15 05:39:10;;;;;;;83.30;17.98;;;15.90;63.30;;;;;;4225871;27;20402;-60
2023/02/15 05:41:51;;;;;;;58.83;17.63;;;15.90;63.20;;;;;;4226000;27;20059;-60
2023/02/15 05:44:32;;;;;;;58.88;17.25;;;15.90;63.10;;;;;;4210689;28;20059;-62
2023/02/15 05:47:13;;;;;;;91.90;18.33;;;15.90;63.00;;;;;;4214905;28;20046;-60
2023/02/15 05:49:54;;;;;;;99.32;17.90;;;15.90;63.00;;;;;;4209122;28;20509;-61
2023/02/15 05:52:36;;;;;;;76.65;18.13;;;15.90;63.00;;;;;;4221840;28;20390;-61
2023/02/15 05:55:17;;;;;;;77.90;18.23;;;15.80;63.00;;;;;;4214170;28;20211;-60
2023/02/15 05:57:58;;;;;;;82.88;18.77;;;15.80;63.30;;;;;;4208982;28;20067;-61
2023/02/15 06:00:40;;;;;;;71.63;18.02;;;15.80;63.50;;;;;;4225141;28;20050;-62
2023/02/15 06:03:21;;;;;;;78.18;18.70;;;15.80;63.70;;;;;;4226109;28;20055;-61
2023/02/15 06:06:04;;;;;;;76.68;17.98;;;15.80;63.60;;;;;;4224702;28;20176;-61
2023/02/15 06:08:46;;;;;;;71.95;18.77;;;15.80;63.60;;;;;;4224939;28;20074;-61
2023/02/15 06:11:27;;;;;;;76.90;18.92;;;15.80;63.80;;;;;;4225571;28;20050;-60
2023/02/15 06:14:08;;;;;;;40.70;17.58;;;15.80;63.70;;;;;;4224944;28;20051;-60
2023/02/15 06:16:49;;;;;;;56.10;18.35;;;15.80;63.70;;;;;;4225618;28;20055;-61
2023/02/15 06:19:30;;;;;;;52.00;17.83;;;15.70;63.60;;;;;;4225326;28;20050;-61
2023/02/15 06:22:13;;;;;;;35.78;18.33;;;15.70;63.60;;;;;;4226073;28;20513;-60
2023/02/15 06:24:55;;;;;;;46.92;17.52;;;15.70;63.70;;;;;;4225588;28;20054;-60
2023/02/15 06:27:37;;;;;;;37.80;17.20;;;15.70;63.80;;;;;;4216195;28;20122;-61
2023/02/15 06:30:18;;;;;;;44.22;17.55;;;15.70;63.60;;;;;;4222536;28;20104;-60
2023/02/15 06:32:59;;;;;;;39.85;17.70;;;15.70;63.60;;;;;;4224655;28;20067;-61
2023/02/15 06:35:39;;;;;;;41.10;17.60;;;15.70;63.70;;;;;;4224309;28;20494;-61
2023/02/15 06:38:21;;;;;;;34.25;17.25;;;15.60;63.90;;;;;;4221731;28;20124;-61
2023/02/15 06:41:03;;;;;;;43.63;17.80;;;15.70;64.00;;;;;;4222396;28;20058;-61
2023/02/15 06:43:44;;;;;;;31.50;17.73;;;15.80;63.60;;;;;;4223872;28;20058;-61
2023/02/15 06:46:25;;;;;;;30.80;18.33;;;15.80;63.40;;;;;;4225751;28;20054;-61
2023/02/15 06:49:06;;;;;;;36.80;18.77;;;15.80;63.20;;;;;;4208478;28;20510;-61
2023/02/15 06:51:46;;;;;;;61.35;19.52;;;15.80;63.20;;;;;;4196700;28;20071;-60
2023/02/15 06:54:27;;;;;;;73.05;19.42;;;15.90;63.20;;;;;;4210287;28;20063;-61
2023/02/15 06:57:10;;;;;;;74.85;20.00;;;15.90;63.00;;;;;;4212080;28;20502;-61
2023/02/15 06:59:51;;;;;;;75.18;18.95;;;15.90;63.00;;;;;;4204056;28;20055;-61
2023/02/15 07:02:34;;;;;;;76.05;19.85;;;15.80;63.00;;;;;;4211714;28;20063;-60
2023/02/15 07:05:14;;;;;;;50.63;18.38;;;15.80;63.20;;;;;;4211861;28;20055;-60
2023/02/15 07:07:56;;;;;;;33.30;19.17;;;15.70;63.50;;;;;;4217126;28;20109;-60
2023/02/15 07:10:37;;;;;;;39.42;18.85;;;15.70;63.70;;;;;;4228097;27;20065;-66
2023/02/15 07:13:18;;;;;;;46.22;19.02;;;15.70;64.00;;;;;;4219657;27;20108;-66
2023/02/15 07:15:59;;;;;;;43.53;19.00;;;15.70;63.80;;;;;;4228107;27;20422;-65
2023/02/15 07:18:40;;;;;;;41.17;18.63;;;15.80;63.70;;;;;;4211473;28;20105;-64
2023/02/15 07:21:21;;;;;;;46.00;19.67;;;15.80;63.70;;;;;;4227101;27;20455;-66
2023/02/15 07:24:02;;;;;;;54.45;19.73;;;15.80;63.30;;;;;;4224132;27;20066;-66
2023/02/15 07:26:43;;;;;;;36.17;18.92;;;15.90;62.80;;;;;;4214523;28;20405;-68
2023/02/15 07:29:26;;;;;;;27.65;18.23;;;15.90;62.50;;;;;;4211736;28;20046;-65
2023/02/15 07:32:07;;;;;;;23.60;18.25;;;15.90;62.70;;;;;;4223641;27;20411;-64
2023/02/15 07:34:48;;;;;;;25.35;19.45;;;16.00;62.50;;;;;;4215815;27;20116;-66
2023/02/15 07:37:29;;;;;;;23.10;18.92;;;16.00;62.60;;;;;;4211350;28;20062;-66
2023/02/15 07:40:10;;;;;;;34.05;19.30;;;16.00;62.30;;;;;;4218891;28;20055;-67
2023/02/15 07:42:54;;;;;;;25.85;19.13;;;15.90;62.20;;;;;;4215733;28;20481;-67
2023/02/15 07:45:37;;;;;;;21.35;18.35;;;15.90;62.20;;;;;;4227822;28;20050;-65
2023/02/15 07:48:18;;;;;;;24.15;19.80;;;15.80;62.40;;;;;;4226824;28;20051;-64
2023/02/15 07:51:00;;;;;;;23.38;18.85;;;15.80;62.60;;;;;;4227555;27;20058;-64
2023/02/15 07:53:42;;;;;;;24.80;19.90;;;15.70;63.30;;;;;;4210712;28;20050;-64
2023/02/15 07:56:22;;;;;;;21.83;18.00;;;15.80;62.70;;;;;;4223407;27;20070;-63
2023/02/15 07:59:04;;;;;;;22.42;19.02;;;15.80;62.70;;;;;;4226071;28;20050;-64
2023/02/15 08:01:47;;;;;;;23.15;18.88;;;15.80;62.80;;;;;;4209942;28;20059;-64
2023/02/15 08:04:28;;;;;;;25.08;19.25;;;15.90;62.30;;;;;;4219239;27;20047;-63
2023/02/15 08:07:09;;;;;;;22.75;19.38;;;15.90;62.10;;;;;;4212141;28;20120;-64
2023/02/15 08:09:50;;;;;;;23.23;20.05;;;15.90;62.30;;;;;;4211127;28;20189;-64
2023/02/15 08:12:31;;;;;;;24.77;18.98;;;15.80;62.20;;;;;;4224556;27;20709;-64
2023/02/15 08:15:12;;;;;;;21.17;18.67;;;15.80;62.20;;;;;;4212592;28;20051;-64
2023/02/15 08:17:54;;;;;;;25.63;19.77;;;15.80;62.40;;;;;;4212212;27;20060;-64
2023/02/15 08:20:35;;;;;;;22.95;19.00;;;15.70;62.60;;;;;;4192428;28;20130;-65
2023/02/15 08:23:16;;;;;;;23.48;19.05;;;15.60;62.80;;;;;;4192665;28;20052;-63
2023/02/15 08:26:00;;;;;;;23.65;18.63;;;15.60;63.10;;;;;;4192399;28;20048;-63
2023/02/15 08:28:42;;;;;;;29.10;18.73;;;15.60;63.10;;;;;;4193786;28;20060;-64
2023/02/15 08:31:24;;;;;;;22.85;17.13;;;15.50;63.40;;;;;;4193345;28;20056;-63
2023/02/15 08:34:06;;;;;;;24.58;18.30;;;15.60;63.70;;;;;;4193885;28;20060;-62
2023/02/15 08:36:48;;;;;;;25.00;17.77;;;15.70;63.50;;;;;;4193699;28;20482;-64
2023/02/15 08:39:29;;;;;;;23.75;18.77;;;15.80;63.40;;;;;;4193737;28;20075;-63
2023/02/15 08:42:10;;;;;;;23.95;17.83;;;15.90;63.20;;;;;;4193717;28;20106;-64
2023/02/15 08:44:51;;;;;;;22.98;17.98;;;16.00;63.00;;;;;;4191937;28;20060;-64
2023/02/15 08:47:32;;;;;;;23.65;18.60;;;16.10;62.70;;;;;;4193659;28;20043;-64
2023/02/15 08:50:14;;;;;;;25.80;19.08;;;16.20;62.30;;;;;;4188828;28;20105;-64
2023/02/15 08:52:57;;;;;;;23.60;17.83;;;16.20;61.80;;;;;;4192419;28;20150;-63
2023/02/15 08:55:39;;;;;;;23.98;18.60;;;16.30;61.50;;;;;;4189512;28;20146;-63
2023/02/15 08:58:20;;;;;;;23.48;17.95;;;16.30;61.50;;;;;;4176575;28;20060;-64
2023/02/15 09:01:04;;;;;;;24.50;19.63;;;16.40;61.40;;;;;;4178594;28;20067;-64
2023/02/15 09:03:45;;;;;;;24.02;17.60;;;16.40;61.30;;;;;;4176840;28;20055;-65
2023/02/15 09:06:28;;;;;;;;;;;16.50;61.40;;;;;;4176996;28;20555;-66
2023/02/15 09:09:08;;;;;;;;;;;16.60;61.20;;;;;;4176755;28;20395;-64
2023/02/15 09:11:51;;;;;;;25.30;18.65;;;16.60;61.10;;;;;;4191391;28;20008;-65
2023/02/15 09:14:39;;;;;;;24.63;19.02;;;16.60;61.00;;;;;;4176414;28;20056;-65
2023/02/15 09:17:19;;;;;;;21.85;17.63;;;16.60;60.90;;;;;;4176532;28;20099;-65
2023/02/15 09:20:00;;;;;;;23.27;17.73;;;16.50;61.00;;;;;;4176576;28;20052;-65
2023/02/15 09:22:43;;;;;;;23.83;19.25;;;16.50;61.40;;;;;;4175516;28;20052;-66
2023/02/15 09:25:24;;;;;;;21.60;17.90;;;16.40;61.40;;;;;;4174936;28;20098;-66
2023/02/15 09:28:05;;;;;;;24.97;19.13;;;16.40;61.90;;;;;;4176216;28;20102;-65
2023/02/15 09:30:46;;;;;;;26.50;18.35;;;16.30;62.10;;;;;;4176294;28;20294;-64
2023/02/15 09:33:27;;;;;;;22.60;17.65;;;16.30;62.10;;;;;;4190889;28;20059;-66
2023/02/15 09:36:16;;;;;;;23.40;17.95;;;16.20;62.30;;;;;;4192810;28;20118;-66
2023/02/15 09:39:02;;;;;;;24.77;18.30;;;16.20;62.50;;;;;;4192407;28;20064;-65
2023/02/15 09:42:10;;;;;;;24.70;19.33;;;16.10;63.60;;;;;;4191081;28;20125;-65
2023/02/15 09:45:09;;;;;;;25.88;19.00;;;16.10;63.70;;;;;;4174325;28;20052;-65
2023/02/15 09:48:07;;;;;;;26.40;18.67;;;16.10;62.90;;;;;;4175341;28;20056;-66
2023/02/15 09:51:02;;;;;;;26.27;19.40;;;16.30;62.70;;;;;;4175502;28;20519;-64
2023/02/15 09:54:00;;;;;;;25.13;18.98;;;16.30;62.30;;;;;;4175611;28;20060;-64
2023/02/15 09:56:49;;;;;;;25.15;18.42;;;16.30;62.20;;;;;;4185094;28;20056;-67
2023/02/15 09:59:38;;;;;;;25.20;20.00;;;16.40;62.40;;;;;;4192234;28;20137;-67
2023/02/15 10:02:35;;;;;;;23.85;18.33;;;16.40;62.40;;;;;;4191632;28;20190;-68
2023/02/15 10:05:27;;;;;;;24.85;19.17;;;16.40;62.40;;;;;;4191618;28;20079;-67
2023/02/15 10:08:32;;;;;;;25.67;19.10;;;16.40;62.40;;;;;;4174629;28;20503;-69
2023/02/15 10:14:40;;;;;;;28.17;20.17;;;16.40;62.40;;;;;;4174245;28;20040;-68
2023/02/15 10:17:34;;;;;;;24.98;19.40;;;16.50;62.40;;;;;;4192158;28;20060;-68
2023/02/15 10:20:28;;;;;;;26.67;19.40;;;16.40;62.30;;;;;;4185600;28;20052;-67
2023/02/15 10:23:25;;;;;;;25.80;20.13;;;16.40;62.50;;;;;;4192347;28;20105;-67
2023/02/15 10:26:13;;;;;;;25.33;18.48;;;16.30;62.60;;;;;;4195452;28;20048;-67
2023/02/15 10:28:59;;;;;;;26.65;20.20;;;16.30;63.00;;;;;;4195628;28;20047;-66
2023/02/15 10:31:49;;;;;;;25.58;18.52;;;16.30;63.10;;;;;;4178852;28;20060;-68
2023/02/15 10:34:39;;;;;;;27.98;20.63;;;16.40;63.10;;;;;;4195584;28;20100;-67
2023/02/15 10:37:47;;;;;;;26.13;18.90;;;16.40;62.80;;;;;;4195595;28;20121;-67
2023/02/15 10:40:34;;;;;;;30.75;21.85;;;16.40;62.70;;;;;;4193488;28;20545;-68
2023/02/15 10:43:33;;;;;;;25.83;19.50;;;16.40;62.60;;;;;;4195269;28;20117;-68
2023/02/15 10:46:25;;;;;;;27.83;21.02;;;16.40;62.70;;;;;;4194720;28;20055;-67
2023/02/15 10:49:27;;;;;;;26.40;19.92;;;16.30;62.80;;;;;;4194230;28;20074;-66
2023/02/15 10:52:23;;;;;;;28.88;20.85;;;16.30;63.20;;;;;;4160882;28;20057;-68
2023/02/15 10:55:15;;;;;;;30.50;21.70;;;16.30;63.20;;;;;;4162198;28;20044;-68
2023/02/15 10:58:06;;;;;;;26.77;20.55;;;16.30;63.20;;;;;;4161481;28;20110;-63
2023/02/15 11:00:59;;;;;;;29.13;21.58;;;16.30;64.00;;;;;;4158320;28;20429;-63
2023/02/15 11:04:06;;;;;;;27.48;21.08;;;16.30;63.00;;;;;;4195008;28;20060;-65
2023/02/15 11:06:54;;;;;;;28.52;20.50;;;16.30;63.10;;;;;;4177004;28;20142;-63
2023/02/15 11:09:39;;;;;;;30.88;22.00;;;16.20;63.20;;;;;;4180098;28;20538;-63
2023/02/15 11:12:24;;;;;;;28.63;21.10;;;16.20;63.50;;;;;;4198103;28;20121;-63
2023/02/15 11:15:16;;;;;;;28.55;21.45;;;16.10;63.80;;;;;;4195007;28;20054;-63
2023/02/15 11:18:02;;;;;;;28.38;20.02;;;16.20;63.90;;;;;;4189937;28;20046;-64
2023/02/15 11:20:47;;;;;;;33.10;22.35;;;16.20;63.80;;;;;;4218569;27;20789;-64
2023/02/15 11:23:31;;;;;;;28.65;20.40;;;16.20;63.70;;;;;;4227948;27;20119;-64
2023/02/15 11:26:16;;;;;;;30.17;21.08;;;16.30;63.80;;;;;;4225906;27;20054;-63
2023/02/15 11:29:01;;;;;;;26.65;20.75;;;16.20;63.90;;;;;;4195738;28;20047;-62
2023/02/15 11:31:46;;;;;;;33.60;21.60;;;16.20;64.00;;;;;;4221720;28;20092;-63
2023/02/15 11:34:32;;;;;;;31.35;22.08;;;16.20;65.00;;;;;;4226725;27;20046;-63
2023/02/15 11:37:17;;;;;;;28.52;18.65;;;16.20;64.30;;;;;;4215773;28;20047;-63
2023/02/15 11:40:03;;;;;;;28.55;22.20;;;16.10;64.50;;;;;;4211453;28;20399;-63
2023/02/15 11:42:45;;;;;;;29.65;20.95;;;16.20;64.60;;;;;;4214595;28;20042;-63
2023/02/15 11:45:28;;;;;;;;;;;16.20;64.40;;;;;;4228010;27;20051;-63
2023/02/15 11:48:12;;;;;;;35.80;22.70;;;16.20;64.20;;;;;;4225878;28;19935;-63
2023/02/15 11:50:52;;;;;;;31.35;22.33;;;16.20;64.10;;;;;;4215660;27;20046;-64
2023/02/15 11:53:37;;;;;;;33.30;21.52;;;16.20;64.20;;;;;;4227377;28;20584;-62
2023/02/15 11:56:23;;;;;;;32.35;22.13;;;16.20;64.30;;;;;;4227446;27;20047;-65
2023/02/15 11:59:10;;;;;;;32.55;23.13;;;16.20;64.40;;;;;;4212536;27;20059;-63
2023/02/15 12:01:51;;;;;;;30.17;20.88;;;16.20;64.50;;;;;;4227553;27;20050;-63
2023/02/15 12:04:39;;;;;;;34.45;23.45;;;16.20;64.70;;;;;;4212588;28;20120;-62
2023/02/15 12:07:25;;;;;;;34.25;23.98;;;16.10;64.80;;;;;;4216566;27;20108;-63
2023/02/15 12:10:18;;;;;;;32.60;23.52;;;16.10;65.00;;;;;;4227370;27;20054;-62
2023/02/15 12:13:13;;;;;;;31.38;22.00;;;16.10;65.20;;;;;;4227033;28;20058;-63
2023/02/15 12:15:56;;;;;;;33.88;22.52;;;16.10;65.10;;;;;;4227270;27;20055;-63
2023/02/15 12:18:40;;;;;;;34.10;23.73;;;16.20;65.00;;;;;;4210418;28;20621;-61
2023/02/15 12:21:27;;;;;;;37.40;23.00;;;16.20;64.90;;;;;;4210581;28;20055;-62
2023/02/15 12:24:18;;;;;;;29.77;20.55;;;16.20;64.90;;;;;;4210715;28;20059;-63
2023/02/15 12:27:03;;;;;;;31.55;21.13;;;16.20;64.80;;;;;;4220075;27;20062;-63
2023/02/15 12:29:49;;;;;;;33.63;21.45;;;16.20;64.90;;;;;;4226856;28;20797;-63
2023/02/15 12:32:35;;;;;;;34.85;22.38;;;16.20;65.00;;;;;;4225157;27;20513;-63
2023/02/15 12:35:30;;;;;;;35.97;23.83;;;16.20;65.10;;;;;;4201079;28;20043;-62
2023/02/15 12:38:24;;;;;;;34.38;22.88;;;16.20;65.30;;;;;;4206667;28;20058;-62
2023/02/15 12:41:22;;;;;;;34.00;22.25;;;16.20;65.50;;;;;;4213669;28;20128;-62
2023/02/15 12:44:08;;;;;;;37.67;23.48;;;16.10;65.40;;;;;;4226596;27;20054;-62
2023/02/15 12:46:58;;;;;;;;;;;16.10;66.50;;;;;;4219526;27;20070;-61
2023/02/15 12:49:40;;;;;;;36.90;23.23;;;16.10;65.80;;;;;;4226603;27;19927;-62
2023/02/15 12:52:27;;;;;;;33.40;21.98;;;16.10;66.10;;;;;;4226897;28;20055;-62
2023/02/15 12:55:19;;;;;;;36.00;22.25;;;16.00;66.20;;;;;;4210193;28;20128;-61
2023/02/15 12:58:08;;;;;;;38.05;22.30;;;16.00;66.50;;;;;;4210291;28;20118;-61
2023/02/15 13:01:03;;;;;;;36.63;22.20;;;15.90;66.70;;;;;;4225837;28;20046;-61
2023/02/15 13:04:02;;;;;;;37.33;24.17;;;15.90;66.70;;;;;;4226100;28;20912;-61
2023/02/15 13:06:49;;;;;;;41.63;25.42;;;15.90;66.50;;;;;;4212410;27;20616;-62
2023/02/15 13:09:39;;;;;;;36.97;24.52;;;15.80;66.60;;;;;;4226322;28;20058;-61
2023/02/15 13:12:24;;;;;;;39.80;24.40;;;15.80;66.80;;;;;;4212399;28;20059;-61
2023/02/15 13:15:24;;;;;;;36.58;23.98;;;15.70;67.90;;;;;;4225036;27;20504;-63
2023/02/15 13:18:11;;;;;;;42.30;24.90;;;15.70;67.30;;;;;;4221177;28;20505;-63
2023/02/15 13:20:54;;;;;;;40.60;25.92;;;15.60;67.40;;;;;;4204296;28;20058;-63
2023/02/15 13:23:35;;;;;;;45.92;26.33;;;15.60;67.70;;;;;;4221552;27;20054;-61
2023/02/15 13:26:20;;;;;;;43.05;26.27;;;15.60;67.60;;;;;;4205927;28;20048;-62
2023/02/15 13:29:08;;;;;;;42.83;25.88;;;15.50;67.50;;;;;;4218988;28;20157;-62
2023/02/15 13:31:50;;;;;;;44.92;26.00;;;15.50;67.60;;;;;;4216943;28;20173;-62
2023/02/15 13:34:35;;;;;;;39.85;25.08;;;15.50;67.90;;;;;;4209840;28;20513;-62
2023/02/15 13:37:21;;;;;;;40.45;26.10;;;15.50;67.90;;;;;;4222157;27;20846;-61
2023/02/15 13:40:08;;;;;;;39.85;26.80;;;15.50;68.00;;;;;;4221659;28;20047;-62
2023/02/15 13:42:55;;;;;;;38.63;24.65;;;15.40;67.90;;;;;;4222933;28;20058;-61
2023/02/15 13:45:49;;;;;;;42.63;26.55;;;15.40;68.20;;;;;;4208821;28;20533;-62
2023/02/15 13:48:42;;;;;;;39.97;25.15;;;15.40;68.30;;;;;;4194846;28;20096;-63
2023/02/15 13:51:39;;;;;;;42.70;26.73;;;15.40;68.20;;;;;;4220774;28;20398;-71
2023/02/15 13:54:37;;;;;;;40.88;26.23;;;15.30;68.40;;;;;;4194268;28;20178;-72
2023/02/15 13:57:37;;;;;;;42.30;26.85;;;15.30;68.70;;;;;;4208863;28;20481;-72
2023/02/15 14:00:24;;;;;;;44.13;25.30;;;15.30;68.80;;;;;;4221887;28;20535;-71
2023/02/15 14:03:36;;;;;;;41.20;27.08;;;15.30;69.10;;;;;;4217063;28;20070;-71
2023/02/15 14:06:32;;;;;;;42.80;26.85;;;15.30;69.20;;;;;;4224520;28;20042;-70
2023/02/15 14:09:24;;;;;;;40.42;26.15;;;15.30;69.40;;;;;;4222671;28;20181;-70
2023/02/15 14:12:26;;;;;;;43.92;26.00;;;15.30;69.40;;;;;;4212094;28;20062;-70
2023/02/15 14:15:23;;;;;;;;;;;15.20;69.40;;;;;;4209875;27;20067;-70
2023/02/15 14:18:16;;;;;;;45.75;27.17;;;15.30;69.80;;;;;;4223930;28;20057;-71
2023/02/15 14:21:04;;;;;;;43.70;26.17;;;15.20;70.00;;;;;;4223482;28;20055;-69
2023/02/15 14:23:58;;;;;;;46.75;28.48;;;15.20;70.50;;;;;;4224343;28;20069;-69
2023/02/15 14:26:47;;;;;;;41.25;27.02;;;15.30;70.70;;;;;;4225144;28;20123;-70
2023/02/15 14:29:48;;;;;;;44.67;25.35;;;15.40;70.60;;;;;;4225456;28;20054;-69